sensor_id;sensor_type;location;lat;lon;timestamp;pressure;altitude;pressure_sealevel;temperature;humidity
67015;BME280;1033;52.560;13.374;2023-02-04T00:01:53;101706.88;;;3.06;95.50
67015;BME280;1033;52.560;13.374;2023-02-04T00:04:25;101732.59;;;2.97;97.82
67015;BME280;1033;52.560;13.374;2023-02-04T00:06:55;101741.34;;;2.99;98.92
67015;BME280;1033;52.560;13.374;2023-02-04T00:09:25;101735.38;;;2.96;98.53
67015;BME280;1033;52.560;13.374;2023-02-04T00:11:57;101743.81;;;2.91;98.12
67015;BME280;1033;52.560;13.374;2023-02-04T00:14:28;101757.63;;;2.96;97.79
67015;BME280;1033;52.560;13.374;2023-02-04T00:17:03;101765.91;;;2.93;98.63
67015;BME280;1033;52.560;13.374;2023-02-04T00:19:37;101771.16;;;2.95;97.58
67015;BME280;1033;52.560;13.374;2023-02-04T00:22:09;101788.00;;;2.95;95.99
67015;BME280;1033;52.560;13.374;2023-02-04T00:24:41;101789.31;;;3.01;95.63
67015;BME280;1033;52.560;13.374;2023-02-04T00:27:16;101814.81;;;3.05;94.97
67015;BME280;1033;52.560;13.374;2023-02-04T00:29:49;101815.81;;;3.04;96.11
67015;BME280;1033;52.560;13.374;2023-02-04T00:32:21;101810.06;;;2.88;97.93
67015;BME280;1033;52.560;13.374;2023-02-04T00:34:54;101825.31;;;2.76;98.88
67015;BME280;1033;52.560;13.374;2023-02-04T00:37:32;101839.59;;;2.66;99.42
67015;BME280;1033;52.560;13.374;2023-02-04T00:40:04;101854.16;;;2.61;99.61
67015;BME280;1033;52.560;13.374;2023-02-04T00:42:39;101878.34;;;2.60;99.05
67015;BME280;1033;52.560;13.374;2023-02-04T00:45:13;101888.69;;;2.53;96.85
67015;BME280;1033;52.560;13.374;2023-02-04T00:47:46;101892.94;;;2.56;96.45
67015;BME280;1033;52.560;13.374;2023-02-04T00:50:17;101904.41;;;2.47;96.86
67015;BME280;1033;52.560;13.374;2023-02-04T00:52:50;101918.63;;;2.36;97.37
67015;BME280;1033;52.560;13.374;2023-02-04T00:55:21;101937.91;;;2.29;97.54
67015;BME280;1033;52.560;13.374;2023-02-04T00:57:51;101947.91;;;2.15;98.29
67015;BME280;1033;52.560;13.374;2023-02-04T01:00:23;101952.00;;;2.08;98.83
67015;BME280;1033;52.560;13.374;2023-02-04T01:02:57;101968.75;;;1.99;99.64
67015;BME280;1033;52.560;13.374;2023-02-04T01:05:27;101972.44;;;1.98;99.33
67015;BME280;1033;52.560;13.374;2023-02-04T01:08:00;101975.31;;;1.95;99.39
67015;BME280;1033;52.560;13.374;2023-02-04T01:10:31;101986.50;;;2.00;98.88
67015;BME280;1033;52.560;13.374;2023-02-04T01:13:02;102000.31;;;2.05;98.02
67015;BME280;1033;52.560;13.374;2023-02-04T01:15:33;102000.81;;;1.99;97.85
67015;BME280;1033;52.560;13.374;2023-02-04T01:18:09;102006.41;;;1.96;98.10
67015;BME280;1033;52.560;13.374;2023-02-04T01:20:46;102011.72;;;1.96;98.34
67015;BME280;1033;52.560;13.374;2023-02-04T01:23:17;102023.41;;;2.06;98.06
67015;BME280;1033;52.560;13.374;2023-02-04T01:25:49;102034.94;;;2.07;97.88
67015;BME280;1033;52.560;13.374;2023-02-04T01:28:21;102042.19;;;2.05;98.00
67015;BME280;1033;52.560;13.374;2023-02-04T01:30:52;102047.66;;;2.03;98.04
67015;BME280;1033;52.560;13.374;2023-02-04T01:33:27;102058.47;;;2.02;98.32
67015;BME280;1033;52.560;13.374;2023-02-04T01:36:00;102075.06;;;1.94;98.45
67015;BME280;1033;52.560;13.374;2023-02-04T01:38:30;102069.00;;;1.92;98.82
67015;BME280;1033;52.560;13.374;2023-02-04T01:41:02;102080.25;;;1.85;98.46
67015;BME280;1033;52.560;13.374;2023-02-04T01:43:34;102090.06;;;1.84;98.37
67015;BME280;1033;52.560;13.374;2023-02-04T01:46:05;102083.16;;;1.82;98.00
67015;BME280;1033;52.560;13.374;2023-02-04T01:48:38;102101.00;;;1.81;97.49
67015;BME280;1033;52.560;13.374;2023-02-04T01:51:11;102104.59;;;1.69;98.25
67015;BME280;1033;52.560;13.374;2023-02-04T01:53:43;102110.16;;;1.66;98.77
67015;BME280;1033;52.560;13.374;2023-02-04T01:56:18;102129.94;;;1.63;98.84
67015;BME280;1033;52.560;13.374;2023-02-04T01:58:50;102132.44;;;1.54;98.73
67015;BME280;1033;52.560;13.374;2023-02-04T02:01:35;102149.91;;;1.58;98.83
67015;BME280;1033;52.560;13.374;2023-02-04T02:04:08;102160.00;;;1.65;98.38
67015;BME280;1033;52.560;13.374;2023-02-04T02:06:43;102155.31;;;1.69;97.58
67015;BME280;1033;52.560;13.374;2023-02-04T02:09:14;102171.19;;;1.70;96.81
67015;BME280;1033;52.560;13.374;2023-02-04T02:11:45;102172.50;;;1.65;96.76
67015;BME280;1033;52.560;13.374;2023-02-04T02:14:16;102179.78;;;1.63;96.69
67015;BME280;1033;52.560;13.374;2023-02-04T02:16:48;102180.47;;;1.54;96.81
67015;BME280;1033;52.560;13.374;2023-02-04T02:19:28;102185.28;;;1.49;96.89
67015;BME280;1033;52.560;13.374;2023-02-04T02:22:06;102192.00;;;1.42;97.11
67015;BME280;1033;52.560;13.374;2023-02-04T02:24:41;102208.00;;;1.42;97.31
67015;BME280;1033;52.560;13.374;2023-02-04T02:27:13;102211.44;;;1.44;97.27
67015;BME280;1033;52.560;13.374;2023-02-04T02:29:47;102210.41;;;1.34;97.64
67015;BME280;1033;52.560;13.374;2023-02-04T02:32:18;102225.53;;;1.33;98.31
67015;BME280;1033;52.560;13.374;2023-02-04T02:34:48;102218.50;;;1.32;98.07
67015;BME280;1033;52.560;13.374;2023-02-04T02:37:19;102235.59;;;1.29;98.45
67015;BME280;1033;52.560;13.374;2023-02-04T02:39:51;102244.41;;;1.43;98.02
67015;BME280;1033;52.560;13.374;2023-02-04T02:42:23;102238.25;;;1.29;98.22
67015;BME280;1033;52.560;13.374;2023-02-04T02:44:55;102240.50;;;1.23;98.65
67015;BME280;1033;52.560;13.374;2023-02-04T02:47:27;102249.44;;;1.22;99.28
67015;BME280;1033;52.560;13.374;2023-02-04T02:49:59;102255.88;;;1.19;99.40
67015;BME280;1033;52.560;13.374;2023-02-04T02:52:29;102255.44;;;1.13;99.55
67015;BME280;1033;52.560;13.374;2023-02-04T02:55:03;102279.34;;;1.14;99.70
67015;BME280;1033;52.560;13.374;2023-02-04T02:57:34;102279.63;;;1.22;99.19
67015;BME280;1033;52.560;13.374;2023-02-04T03:00:13;102284.44;;;1.17;99.42
67015;BME280;1033;52.560;13.374;2023-02-04T03:02:51;102291.81;;;1.14;99.67
67015;BME280;1033;52.560;13.374;2023-02-04T03:05:23;102297.47;;;1.09;99.42
67015;BME280;1033;52.560;13.374;2023-02-04T03:07:54;102300.66;;;1.14;99.06
67015;BME280;1033;52.560;13.374;2023-02-04T03:10:27;102310.47;;;1.14;99.30
67015;BME280;1033;52.560;13.374;2023-02-04T03:13:00;102315.91;;;1.12;99.34
67015;BME280;1033;52.560;13.374;2023-02-04T03:15:33;102319.56;;;1.11;98.97
67015;BME280;1033;52.560;13.374;2023-02-04T03:18:05;102330.94;;;1.13;99.36
67015;BME280;1033;52.560;13.374;2023-02-04T03:20:36;102327.56;;;1.11;99.01
67015;BME280;1033;52.560;13.374;2023-02-04T03:23:07;102328.81;;;1.18;98.97
67015;BME280;1033;52.560;13.374;2023-02-04T03:25:42;102341.63;;;1.13;98.98
67015;BME280;1033;52.560;13.374;2023-02-04T03:28:14;102358.38;;;1.15;98.71
67015;BME280;1033;52.560;13.374;2023-02-04T03:30:45;102368.69;;;1.07;99.24
67015;BME280;1033;52.560;13.374;2023-02-04T03:33:21;102379.16;;;1.10;99.26
67015;BME280;1033;52.560;13.374;2023-02-04T03:35:52;102371.03;;;1.12;98.84
67015;BME280;1033;52.560;13.374;2023-02-04T03:38:24;102389.63;;;1.13;98.69
67015;BME280;1033;52.560;13.374;2023-02-04T03:40:57;102395.16;;;1.10;98.62
67015;BME280;1033;52.560;13.374;2023-02-04T03:43:29;102410.50;;;1.07;99.07
67015;BME280;1033;52.560;13.374;2023-02-04T03:46:01;102420.94;;;0.97;99.63
67015;BME280;1033;52.560;13.374;2023-02-04T03:48:34;102433.53;;;0.95;99.74
67015;BME280;1033;52.560;13.374;2023-02-04T03:51:06;102434.81;;;1.02;99.73
67015;BME280;1033;52.560;13.374;2023-02-04T03:53:39;102448.50;;;1.10;99.27
67015;BME280;1033;52.560;13.374;2023-02-04T03:56:13;102457.78;;;1.17;99.16
67015;BME280;1033;52.560;13.374;2023-02-04T03:58:46;102463.56;;;1.24;98.58
67015;BME280;1033;52.560;13.374;2023-02-04T04:01:16;102458.94;;;1.26;98.45
67015;BME280;1033;52.560;13.374;2023-02-04T04:03:49;102469.13;;;1.34;98.41
67015;BME280;1033;52.560;13.374;2023-02-04T04:06:22;102477.97;;;1.34;98.08
67015;BME280;1033;52.560;13.374;2023-02-04T04:08:52;102487.56;;;1.37;97.99
67015;BME280;1033;52.560;13.374;2023-02-04T04:11:27;102488.03;;;1.43;97.68
67015;BME280;1033;52.560;13.374;2023-02-04T04:13:58;102486.22;;;1.44;97.62
67015;BME280;1033;52.560;13.374;2023-02-04T04:16:29;102496.97;;;1.42;97.67
67015;BME280;1033;52.560;13.374;2023-02-04T04:19:01;102498.28;;;1.49;97.68
67015;BME280;1033;52.560;13.374;2023-02-04T04:21:33;102510.13;;;1.45;97.35
67015;BME280;1033;52.560;13.374;2023-02-04T04:24:05;102514.91;;;1.40;97.34
67015;BME280;1033;52.560;13.374;2023-02-04T04:26:39;102518.09;;;1.33;97.97
67015;BME280;1033;52.560;13.374;2023-02-04T04:29:10;102524.81;;;1.25;98.52
67015;BME280;1033;52.560;13.374;2023-02-04T04:31:40;102538.00;;;1.27;98.92
67015;BME280;1033;52.560;13.374;2023-02-04T04:34:12;102534.72;;;1.23;98.72
67015;BME280;1033;52.560;13.374;2023-02-04T04:36:42;102545.78;;;1.17;99.10
67015;BME280;1033;52.560;13.374;2023-02-04T04:39:16;102554.19;;;1.11;99.43
67015;BME280;1033;52.560;13.374;2023-02-04T04:41:48;102562.97;;;0.99;100.00
67015;BME280;1033;52.560;13.374;2023-02-04T04:44:20;102569.13;;;0.87;100.00
67015;BME280;1033;52.560;13.374;2023-02-04T04:46:50;102569.25;;;0.98;100.00
67015;BME280;1033;52.560;13.374;2023-02-04T04:49:21;102583.28;;;0.87;100.00
67015;BME280;1033;52.560;13.374;2023-02-04T04:51:55;102588.34;;;0.78;100.00
67015;BME280;1033;52.560;13.374;2023-02-04T04:54:25;102601.66;;;0.78;100.00
67015;BME280;1033;52.560;13.374;2023-02-04T04:57:00;102596.75;;;0.72;100.00
67015;BME280;1033;52.560;13.374;2023-02-04T04:59:30;102601.41;;;0.68;100.00
67015;BME280;1033;52.560;13.374;2023-02-04T05:02:01;102616.81;;;0.63;100.00
67015;BME280;1033;52.560;13.374;2023-02-04T05:04:32;102615.59;;;0.55;100.00
67015;BME280;1033;52.560;13.374;2023-02-04T05:07:03;102625.22;;;0.71;100.00
67015;BME280;1033;52.560;13.374;2023-02-04T05:09:36;102633.94;;;0.59;100.00
67015;BME280;1033;52.560;13.374;2023-02-04T05:12:10;102630.72;;;0.54;100.00
67015;BME280;1033;52.560;13.374;2023-02-04T05:14:41;102635.75;;;0.59;100.00
67015;BME280;1033;52.560;13.374;2023-02-04T05:17:13;102631.28;;;0.59;100.00
67015;BME280;1033;52.560;13.374;2023-02-04T05:19:43;102632.34;;;0.57;100.00
67015;BME280;1033;52.560;13.374;2023-02-04T05:22:14;102649.47;;;0.53;100.00
67015;BME280;1033;52.560;13.374;2023-02-04T05:24:44;102656.69;;;0.51;100.00
67015;BME280;1033;52.560;13.374;2023-02-04T05:27:18;102663.91;;;0.49;100.00
67015;BME280;1033;52.560;13.374;2023-02-04T05:29:49;102671.38;;;0.43;100.00
67015;BME280;1033;52.560;13.374;2023-02-04T05:32:19;102670.78;;;0.38;100.00
67015;BME280;1033;52.560;13.374;2023-02-04T05:34:50;102685.81;;;0.54;100.00
67015;BME280;1033;52.560;13.374;2023-02-04T05:37:21;102692.28;;;0.50;100.00
67015;BME280;1033;52.560;13.374;2023-02-04T05:39:52;102692.47;;;0.47;100.00
67015;BME280;1033;52.560;13.374;2023-02-04T05:42:25;102700.59;;;0.29;100.00
67015;BME280;1033;52.560;13.374;2023-02-04T05:44:56;102716.38;;;0.18;100.00
67015;BME280;1033;52.560;13.374;2023-02-04T05:47:28;102716.59;;;0.29;100.00
67015;BME280;1033;52.560;13.374;2023-02-04T05:49:59;102725.28;;;0.33;100.00
67015;BME280;1033;52.560;13.374;2023-02-04T05:52:29;102719.44;;;0.26;100.00
67015;BME280;1033;52.560;13.374;2023-02-04T05:55:06;102730.69;;;0.31;100.00
67015;BME280;1033;52.560;13.374;2023-02-04T05:57:39;102735.34;;;0.28;100.00
67015;BME280;1033;52.560;13.374;2023-02-04T06:00:11;102737.13;;;0.27;100.00
67015;BME280;1033;52.560;13.374;2023-02-04T06:02:43;102737.22;;;0.26;100.00
67015;BME280;1033;52.560;13.374;2023-02-04T06:05:15;102751.94;;;0.17;100.00
67015;BME280;1033;52.560;13.374;2023-02-04T06:07:46;102761.53;;;0.20;100.00
67015;BME280;1033;52.560;13.374;2023-02-04T06:10:19;102767.13;;;0.15;100.00
67015;BME280;1033;52.560;13.374;2023-02-04T06:12:52;102772.47;;;0.15;100.00
67015;BME280;1033;52.560;13.374;2023-02-04T06:15:22;102789.47;;;0.28;100.00
67015;BME280;1033;52.560;13.374;2023-02-04T06:17:54;102795.56;;;0.15;100.00
67015;BME280;1033;52.560;13.374;2023-02-04T06:20:26;102793.75;;;0.15;100.00
67015;BME280;1033;52.560;13.374;2023-02-04T06:22:59;102794.91;;;0.11;100.00
67015;BME280;1033;52.560;13.374;2023-02-04T06:25:29;102791.22;;;0.14;100.00
67015;BME280;1033;52.560;13.374;2023-02-04T06:28:01;102799.88;;;0.17;100.00
67015;BME280;1033;52.560;13.374;2023-02-04T06:30:31;102795.09;;;0.08;100.00
67015;BME280;1033;52.560;13.374;2023-02-04T06:33:02;102806.66;;;0.07;100.00
67015;BME280;1033;52.560;13.374;2023-02-04T06:35:33;102815.19;;;-0.02;100.00
67015;BME280;1033;52.560;13.374;2023-02-04T06:38:04;102811.13;;;-0.09;100.00
67015;BME280;1033;52.560;13.374;2023-02-04T06:40:35;102829.69;;;-0.08;100.00
67015;BME280;1033;52.560;13.374;2023-02-04T06:43:07;102828.16;;;0.04;100.00
67015;BME280;1033;52.560;13.374;2023-02-04T06:45:40;102820.16;;;0.04;100.00
67015;BME280;1033;52.560;13.374;2023-02-04T06:48:11;102824.19;;;0.11;100.00
67015;BME280;1033;52.560;13.374;2023-02-04T06:50:42;102827.19;;;0.05;100.00
67015;BME280;1033;52.560;13.374;2023-02-04T06:53:12;102824.28;;;0.10;100.00
67015;BME280;1033;52.560;13.374;2023-02-04T06:55:42;102818.72;;;-0.02;100.00
67015;BME280;1033;52.560;13.374;2023-02-04T06:58:15;102823.78;;;0.03;100.00
67015;BME280;1033;52.560;13.374;2023-02-04T07:00:48;102832.88;;;-0.01;100.00
67015;BME280;1033;52.560;13.374;2023-02-04T07:03:21;102832.44;;;-0.09;100.00
67015;BME280;1033;52.560;13.374;2023-02-04T07:05:55;102830.38;;;-0.04;100.00
67015;BME280;1033;52.560;13.374;2023-02-04T07:08:28;102834.34;;;0.05;100.00
67015;BME280;1033;52.560;13.374;2023-02-04T07:10:59;102832.34;;;0.08;100.00
67015;BME280;1033;52.560;13.374;2023-02-04T07:13:32;102828.22;;;0.03;100.00
67015;BME280;1033;52.560;13.374;2023-02-04T07:16:03;102829.16;;;0.02;100.00
67015;BME280;1033;52.560;13.374;2023-02-04T07:18:35;102840.16;;;0.11;100.00
67015;BME280;1033;52.560;13.374;2023-02-04T07:21:06;102850.66;;;0.14;100.00
67015;BME280;1033;52.560;13.374;2023-02-04T07:23:36;102848.41;;;0.22;100.00
67015;BME280;1033;52.560;13.374;2023-02-04T07:26:07;102859.06;;;0.22;100.00
67015;BME280;1033;52.560;13.374;2023-02-04T07:28:40;102865.22;;;0.38;100.00
67015;BME280;1033;52.560;13.374;2023-02-04T07:31:12;102876.69;;;0.39;100.00
67015;BME280;1033;52.560;13.374;2023-02-04T07:33:43;102884.63;;;0.40;100.00
67015;BME280;1033;52.560;13.374;2023-02-04T07:36:13;102885.63;;;0.54;100.00
67015;BME280;1033;52.560;13.374;2023-02-04T07:38:46;102892.31;;;0.61;100.00
67015;BME280;1033;52.560;13.374;2023-02-04T07:41:17;102888.72;;;0.62;100.00
67015;BME280;1033;52.560;13.374;2023-02-04T07:43:51;102894.59;;;0.53;100.00
67015;BME280;1033;52.560;13.374;2023-02-04T07:46:22;102901.56;;;0.69;100.00
67015;BME280;1033;52.560;13.374;2023-02-04T07:48:54;102911.38;;;0.69;100.00
67015;BME280;1033;52.560;13.374;2023-02-04T07:51:28;102916.44;;;0.73;100.00
67015;BME280;1033;52.560;13.374;2023-02-04T07:53:59;102924.75;;;0.83;100.00
67015;BME280;1033;52.560;13.374;2023-02-04T07:56:30;102927.41;;;0.83;100.00
67015;BME280;1033;52.560;13.374;2023-02-04T07:59:02;102925.06;;;0.93;100.00
67015;BME280;1033;52.560;13.374;2023-02-04T08:01:35;102929.84;;;1.02;100.00
67015;BME280;1033;52.560;13.374;2023-02-04T08:04:07;102938.09;;;1.13;100.00
67015;BME280;1033;52.560;13.374;2023-02-04T08:06:39;102934.38;;;1.15;100.00
67015;BME280;1033;52.560;13.374;2023-02-04T08:09:14;102949.72;;;1.26;100.00
67015;BME280;1033;52.560;13.374;2023-02-04T08:11:46;102950.13;;;1.34;100.00
67015;BME280;1033;52.560;13.374;2023-02-04T08:14:18;102955.88;;;1.42;100.00
67015;BME280;1033;52.560;13.374;2023-02-04T08:16:49;102957.31;;;1.48;100.00
67015;BME280;1033;52.560;13.374;2023-02-04T08:19:21;102965.91;;;1.53;100.00
67015;BME280;1033;52.560;13.374;2023-02-04T08:21:52;102965.91;;;1.67;99.70
67015;BME280;1033;52.560;13.374;2023-02-04T08:24:22;102975.63;;;1.68;99.58
67015;BME280;1033;52.560;13.374;2023-02-04T08:26:53;102977.34;;;1.69;99.16
67015;BME280;1033;52.560;13.374;2023-02-04T08:29:26;102983.28;;;1.74;98.46
67015;BME280;1033;52.560;13.374;2023-02-04T08:31:57;102983.06;;;1.77;97.94
67015;BME280;1033;52.560;13.374;2023-02-04T08:34:29;102996.63;;;1.88;97.60
67015;BME280;1033;52.560;13.374;2023-02-04T08:36:59;102991.75;;;1.95;96.38
67015;BME280;1033;52.560;13.374;2023-02-04T08:39:30;102987.47;;;1.92;95.89
67015;BME280;1033;52.560;13.374;2023-02-04T08:42:01;102988.69;;;2.01;96.23
67015;BME280;1033;52.560;13.374;2023-02-04T08:44:34;102994.81;;;2.03;95.10
67015;BME280;1033;52.560;13.374;2023-02-04T08:47:04;102981.56;;;2.01;95.00
67015;BME280;1033;52.560;13.374;2023-02-04T08:49:36;102986.09;;;2.13;94.22
67015;BME280;1033;52.560;13.374;2023-02-04T08:52:09;102994.25;;;2.12;94.50
67015;BME280;1033;52.560;13.374;2023-02-04T08:54:41;103000.72;;;2.22;92.72
67015;BME280;1033;52.560;13.374;2023-02-04T08:57:14;103000.44;;;2.27;92.94
67015;BME280;1033;52.560;13.374;2023-02-04T08:59:46;103009.84;;;2.46;91.45
67015;BME280;1033;52.560;13.374;2023-02-04T09:02:16;103012.59;;;2.45;91.67
67015;BME280;1033;52.560;13.374;2023-02-04T09:04:48;103013.38;;;2.47;91.08
67015;BME280;1033;52.560;13.374;2023-02-04T09:07:20;103019.47;;;2.49;90.77
67015;BME280;1033;52.560;13.374;2023-02-04T09:09:50;103013.91;;;2.52;90.58
67015;BME280;1033;52.560;13.374;2023-02-04T09:12:23;103019.03;;;2.69;90.33
67015;BME280;1033;52.560;13.374;2023-02-04T09:14:56;103018.97;;;2.71;90.05
67015;BME280;1033;52.560;13.374;2023-02-04T09:17:26;103023.88;;;2.77;88.68
67015;BME280;1033;52.560;13.374;2023-02-04T09:19:59;103029.59;;;2.85;87.95
67015;BME280;1033;52.560;13.374;2023-02-04T09:22:29;103036.69;;;2.72;87.88
67015;BME280;1033;52.560;13.374;2023-02-04T09:24:59;103037.81;;;2.82;87.69
67015;BME280;1033;52.560;13.374;2023-02-04T09:27:32;103045.53;;;2.86;88.58
67015;BME280;1033;52.560;13.374;2023-02-04T09:30:05;103043.75;;;3.14;87.14
67015;BME280;1033;52.560;13.374;2023-02-04T09:32:36;103063.50;;;3.11;85.97
67015;BME280;1033;52.560;13.374;2023-02-04T09:35:06;103065.31;;;3.11;85.07
67015;BME280;1033;52.560;13.374;2023-02-04T09:37:41;103068.25;;;3.20;85.09
67015;BME280;1033;52.560;13.374;2023-02-04T09:40:15;103072.00;;;3.18;85.33
67015;BME280;1033;52.560;13.374;2023-02-04T09:42:46;103069.91;;;3.35;84.18
67015;BME280;1033;52.560;13.374;2023-02-04T09:45:23;103081.31;;;3.52;83.69
67015;BME280;1033;52.560;13.374;2023-02-04T09:47:56;103071.78;;;3.47;82.13
67015;BME280;1033;52.560;13.374;2023-02-04T09:50:30;103085.03;;;3.49;82.27
67015;BME280;1033;52.560;13.374;2023-02-04T09:53:04;103078.31;;;3.56;82.58
67015;BME280;1033;52.560;13.374;2023-02-04T09:55:39;103074.47;;;3.60;81.08
67015;BME280;1033;52.560;13.374;2023-02-04T09:58:13;103071.31;;;3.41;81.03
67015;BME280;1033;52.560;13.374;2023-02-04T10:00:55;103084.53;;;3.57;81.37
67015;BME280;1033;52.560;13.374;2023-02-04T10:03:28;103080.28;;;3.79;80.86
67015;BME280;1033;52.560;13.374;2023-02-04T10:06:02;103081.47;;;3.75;79.26
67015;BME280;1033;52.560;13.374;2023-02-04T10:08:35;103097.00;;;3.70;78.10
67015;BME280;1033;52.560;13.374;2023-02-04T10:11:07;103084.63;;;3.55;77.96
67015;BME280;1033;52.560;13.374;2023-02-04T10:13:40;103087.84;;;3.60;78.09
67015;BME280;1033;52.560;13.374;2023-02-04T10:16:17;103094.53;;;3.67;77.43
67015;BME280;1033;52.560;13.374;2023-02-04T10:18:48;103091.44;;;3.99;76.66
67015;BME280;1033;52.560;13.374;2023-02-04T10:21:24;103102.16;;;3.99;75.20
67015;BME280;1033;52.560;13.374;2023-02-04T10:23:57;103099.16;;;4.03;75.31
67015;BME280;1033;52.560;13.374;2023-02-04T10:26:32;103098.94;;;3.93;74.95
67015;BME280;1033;52.560;13.374;2023-02-04T10:29:06;103092.94;;;4.03;73.32
67015;BME280;1033;52.560;13.374;2023-02-04T10:31:42;103102.34;;;3.83;74.32
67015;BME280;1033;52.560;13.374;2023-02-04T10:34:15;103102.94;;;3.48;74.50
67015;BME280;1033;52.560;13.374;2023-02-04T10:36:52;103108.69;;;3.42;74.66
67015;BME280;1033;52.560;13.374;2023-02-04T10:39:28;103102.50;;;3.55;72.15
67015;BME280;1033;52.560;13.374;2023-02-04T10:42:00;103105.97;;;3.69;72.15
67015;BME280;1033;52.560;13.374;2023-02-04T10:44:36;103101.97;;;4.02;70.74
67015;BME280;1033;52.560;13.374;2023-02-04T10:47:22;103112.25;;;3.82;70.12
67015;BME280;1033;52.560;13.374;2023-02-04T10:49:56;103107.69;;;3.70;70.80
67015;BME280;1033;52.560;13.374;2023-02-04T10:52:34;103102.91;;;3.75;70.70
67015;BME280;1033;52.560;13.374;2023-02-04T10:55:09;103113.00;;;4.10;69.87
67015;BME280;1033;52.560;13.374;2023-02-04T10:57:43;103116.56;;;4.10;67.90
67015;BME280;1033;52.560;13.374;2023-02-04T11:00:17;103107.00;;;4.19;67.62
67015;BME280;1033;52.560;13.374;2023-02-04T11:02:54;103102.06;;;4.38;67.83
67015;BME280;1033;52.560;13.374;2023-02-04T11:05:30;103107.97;;;4.43;66.90
67015;BME280;1033;52.560;13.374;2023-02-04T11:08:02;103115.88;;;4.57;67.29
67015;BME280;1033;52.560;13.374;2023-02-04T11:10:50;103119.25;;;4.35;66.60
67015;BME280;1033;52.560;13.374;2023-02-04T11:13:26;103118.91;;;4.27;66.52
67015;BME280;1033;52.560;13.374;2023-02-04T11:16:11;103119.00;;;4.13;65.27
67015;BME280;1033;52.560;13.374;2023-02-04T11:18:50;103122.66;;;4.25;64.48
67015;BME280;1033;52.560;13.374;2023-02-04T11:21:27;103117.38;;;4.36;64.08
67015;BME280;1033;52.560;13.374;2023-02-04T11:24:18;103121.47;;;4.54;63.64
67015;BME280;1033;52.560;13.374;2023-02-04T11:26:52;103118.47;;;4.08;64.95
67015;BME280;1033;52.560;13.374;2023-02-04T11:29:36;103131.53;;;4.13;65.22
67015;BME280;1033;52.560;13.374;2023-02-04T11:35:22;103133.69;;;4.58;66.04
67015;BME280;1033;52.560;13.374;2023-02-04T11:37:55;103134.56;;;4.59;65.51
67015;BME280;1033;52.560;13.374;2023-02-04T11:40:29;103136.47;;;4.57;66.28
67015;BME280;1033;52.560;13.374;2023-02-04T11:43:02;103141.41;;;4.37;66.40
67015;BME280;1033;52.560;13.374;2023-02-04T11:45:35;103145.25;;;4.08;66.81
67015;BME280;1033;52.560;13.374;2023-02-04T11:48:13;103148.75;;;3.83;66.97
67015;BME280;1033;52.560;13.374;2023-02-04T11:50:54;103154.41;;;3.79;67.55
67015;BME280;1033;52.560;13.374;2023-02-04T11:53:29;103163.06;;;3.97;67.60
67015;BME280;1033;52.560;13.374;2023-02-04T11:56:00;103162.22;;;4.34;66.66
67015;BME280;1033;52.560;13.374;2023-02-04T11:58:31;103156.84;;;4.72;65.97
67015;BME280;1033;52.560;13.374;2023-02-04T12:01:02;103154.53;;;5.04;63.44
67015;BME280;1033;52.560;13.374;2023-02-04T12:03:46;103152.59;;;5.06;64.58
67015;BME280;1033;52.560;13.374;2023-02-04T12:06:33;103151.72;;;4.69;64.91
67015;BME280;1033;52.560;13.374;2023-02-04T12:09:07;103152.78;;;4.41;64.21
67015;BME280;1033;52.560;13.374;2023-02-04T12:11:52;103146.13;;;4.09;63.01
67015;BME280;1033;52.560;13.374;2023-02-04T12:14:30;103157.72;;;4.22;63.30
67015;BME280;1033;52.560;13.374;2023-02-04T12:17:14;103145.69;;;4.02;62.55
67015;BME280;1033;52.560;13.374;2023-02-04T12:19:47;103150.88;;;4.43;62.56
67015;BME280;1033;52.560;13.374;2023-02-04T12:22:19;103140.56;;;4.50;61.38
67015;BME280;1033;52.560;13.374;2023-02-04T12:24:51;103148.59;;;4.37;62.01
67015;BME280;1033;52.560;13.374;2023-02-04T12:27:25;103157.19;;;4.29;61.74
67015;BME280;1033;52.560;13.374;2023-02-04T12:29:58;103164.72;;;4.50;62.11
67015;BME280;1033;52.560;13.374;2023-02-04T12:32:31;103175.31;;;4.51;62.44
67015;BME280;1033;52.560;13.374;2023-02-04T12:35:03;103177.44;;;4.46;63.67
67015;BME280;1033;52.560;13.374;2023-02-04T12:37:36;103167.16;;;4.15;64.68
67015;BME280;1033;52.560;13.374;2023-02-04T12:40:09;103181.72;;;4.11;65.36
67015;BME280;1033;52.560;13.374;2023-02-04T12:42:40;103178.91;;;4.12;65.26
67015;BME280;1033;52.560;13.374;2023-02-04T12:45:11;103177.19;;;3.99;66.00
67015;BME280;1033;52.560;13.374;2023-02-04T12:47:44;103179.59;;;4.16;65.99
67015;BME280;1033;52.560;13.374;2023-02-04T12:50:16;103171.75;;;4.13;65.00
67015;BME280;1033;52.560;13.374;2023-02-04T12:52:56;103171.81;;;3.99;64.93
67015;BME280;1033;52.560;13.374;2023-02-04T12:55:28;103178.91;;;4.00;64.10
67015;BME280;1033;52.560;13.374;2023-02-04T12:57:59;103183.38;;;3.86;64.54
67015;BME280;1033;52.560;13.374;2023-02-04T13:00:30;103183.41;;;3.99;65.24
67015;BME280;1033;52.560;13.374;2023-02-04T13:03:03;103182.94;;;3.92;64.95
67015;BME280;1033;52.560;13.374;2023-02-04T13:05:34;103182.63;;;3.84;64.68
67015;BME280;1033;52.560;13.374;2023-02-04T13:08:07;103182.28;;;3.76;64.83
67015;BME280;1033;52.560;13.374;2023-02-04T13:10:41;103180.28;;;3.92;65.11
67015;BME280;1033;52.560;13.374;2023-02-04T13:13:13;103189.69;;;3.85;64.78
67015;BME280;1033;52.560;13.374;2023-02-04T13:15:45;103189.44;;;4.15;64.42
67015;BME280;1033;52.560;13.374;2023-02-04T13:18:15;103186.88;;;4.14;64.25
67015;BME280;1033;52.560;13.374;2023-02-04T13:20:46;103185.16;;;4.13;64.14
67015;BME280;1033;52.560;13.374;2023-02-04T13:23:18;103182.53;;;3.99;64.23
67015;BME280;1033;52.560;13.374;2023-02-04T13:25:50;103189.78;;;3.71;63.60
67015;BME280;1033;52.560;13.374;2023-02-04T13:28:22;103182.41;;;3.48;63.86
67015;BME280;1033;52.560;13.374;2023-02-04T13:30:52;103196.56;;;3.36;64.52